createdAt,value
2022-08-08T00:00:53.211Z,100158.66
2022-08-08T00:04:36.335Z,100155.22
2022-08-08T00:08:49.214Z,100160.59
2022-08-08T00:13:00.914Z,100161.53
2022-08-08T00:17:23.512Z,100157.00
2022-08-08T00:21:43.447Z,100147.16
2022-08-08T00:25:54.191Z,100152.56
2022-08-08T00:30:01.659Z,100155.22
2022-08-08T00:34:46.370Z,100151.69
2022-08-08T00:38:55.968Z,100151.72
2022-08-08T00:43:29.692Z,100165.22
2022-08-08T00:48:33.849Z,100157.19
2022-08-08T00:52:53.982Z,100143.97
2022-08-08T00:57:29.595Z,100137.84
2022-08-08T01:02:02.013Z,100144.22
2022-08-08T01:06:47.627Z,100158.53
2022-08-08T01:11:27.848Z,100159.34
2022-08-08T01:16:04.618Z,100154.97
2022-08-08T01:20:39.823Z,100147.94
2022-08-08T01:25:40.039Z,100148.03
2022-08-08T01:30:13.289Z,100143.63
2022-08-08T01:35:11.045Z,100149.06
2022-08-08T01:39:41.934Z,100140.31
2022-08-08T01:43:53.508Z,100136.00
2022-08-08T01:48:23.525Z,100144.13
2022-08-08T01:54:04.109Z,100152.28
2022-08-08T01:58:04.164Z,100164.88
2022-08-08T02:02:08.330Z,100173.91
2022-08-08T02:06:36.617Z,100164.97
2022-08-08T02:11:01.525Z,100170.31
2022-08-08T02:15:12.997Z,100168.59
2022-08-08T02:20:08.370Z,100170.50
2022-08-08T02:23:59.187Z,100156.31
2022-08-08T02:28:10.727Z,100168.91
2022-08-08T02:32:49.314Z,100160.06
2022-08-08T02:37:02.233Z,100160.06
2022-08-08T02:42:04.180Z,100154.75
2022-08-08T02:46:31.730Z,100170.03
2022-08-08T02:51:14.992Z,100166.53
2022-08-08T02:56:03.334Z,100166.63
2022-08-08T03:00:31.356Z,100180.09
2022-08-08T03:05:17.526Z,100177.59
2022-08-08T03:09:53.047Z,100175.13
2022-08-08T03:16:01.577Z,100178.78
2022-08-08T03:18:52.362Z,100188.63
2022-08-08T03:23:00.465Z,100182.44
2022-08-08T03:27:17.370Z,100177.16
2022-08-08T03:32:06.207Z,100171.88
2022-08-08T03:36:04.856Z,100170.31
2022-08-08T03:40:29.475Z,100174.91
2022-08-08T03:44:38.618Z,100179.41
2022-08-08T03:49:56.142Z,100183.00
2022-08-08T03:53:23.970Z,100188.44
2022-08-08T03:58:09.419Z,100192.03
2022-08-08T04:02:36.513Z,100191.22
2022-08-08T04:06:42.560Z,100197.44
2022-08-08T04:10:48.746Z,100200.94
2022-08-08T04:15:07.088Z,100205.56
2022-08-08T04:19:24.963Z,100206.53
2022-08-08T04:24:12.172Z,100193.22
2022-08-08T04:28:34.306Z,100201.28
2022-08-08T04:32:30.533Z,100207.47
2022-08-08T04:36:34.903Z,100208.47
2022-08-08T04:40:38.958Z,100201.50
2022-08-08T04:44:55.699Z,100209.53
2022-08-08T04:49:00.533Z,100216.56
2022-08-08T04:53:13.898Z,100216.50
2022-08-08T04:57:28.308Z,100220.06
2022-08-08T05:01:35.598Z,100225.28
2022-08-08T05:05:56.089Z,100228.69
2022-08-08T05:10:00.114Z,100221.44
2022-08-08T05:14:08.745Z,100217.91
2022-08-08T05:18:17.294Z,100213.41
2022-08-08T05:22:23.258Z,100224.09
2022-08-08T05:26:27.656Z,100223.16
2022-08-08T05:30:32.119Z,100226.63
2022-08-08T05:34:43.470Z,100231.03
2022-08-08T05:38:53.033Z,100240.81
2022-08-08T05:43:02.955Z,100230.13
2022-08-08T05:47:22.723Z,100238.13
2022-08-08T05:51:26.407Z,100255.00
2022-08-08T05:56:09.764Z,100253.94
2022-08-08T06:00:25.357Z,100258.31
2022-08-08T06:04:30.651Z,100260.97
2022-08-08T06:08:38.782Z,100266.22
2022-08-08T06:12:59.147Z,100270.41
2022-08-08T06:17:07.343Z,100263.97
2022-08-08T06:21:32.602Z,100264.81
2022-08-08T06:26:38.397Z,100278.13
2022-08-08T06:30:11.965Z,100284.25
2022-08-08T06:34:31.493Z,100284.03
2022-08-08T06:38:39.485Z,100284.75
2022-08-08T06:42:55.577Z,100289.03
2022-08-08T06:47:07.409Z,100294.19
2022-08-08T06:51:15.806Z,100290.44
2022-08-08T06:55:21.729Z,100293.94
2022-08-08T06:59:25.496Z,100295.53
2022-08-08T07:04:39.898Z,100305.13
2022-08-08T07:08:19.728Z,100308.50
2022-08-08T07:12:31.770Z,100312.66
2022-08-08T07:16:53.829Z,100308.84
2022-08-08T07:21:05.273Z,100306.91
2022-08-08T07:25:29.422Z,100309.91
2022-08-08T07:30:00.011Z,100313.16
2022-08-08T07:34:03.276Z,100315.41
2022-08-08T07:38:20.541Z,100316.94
2022-08-08T07:42:38.825Z,100315.03
2022-08-08T07:46:46.210Z,100323.06
2022-08-08T07:50:58.780Z,100310.69
2022-08-08T07:55:12.039Z,100325.97
2022-08-08T07:59:19.416Z,100336.91
2022-08-08T08:03:41.184Z,100338.28
2022-08-08T08:07:53.154Z,100346.75
2022-08-08T08:12:01.131Z,100351.78
2022-08-08T08:16:17.014Z,100360.34
2022-08-08T08:20:30.344Z,100365.34
2022-08-08T08:24:36.742Z,100374.03
2022-08-08T08:28:43.502Z,100372.50
2022-08-08T08:32:51.816Z,100375.34
2022-08-08T08:36:59.478Z,100373.69
2022-08-08T08:41:06.242Z,100376.38
2022-08-08T08:45:23.857Z,100377.19
2022-08-08T08:49:34.764Z,100377.09
2022-08-08T08:53:55.408Z,100372.69
2022-08-08T08:58:07.017Z,100371.03
2022-08-08T09:02:21.823Z,100352.53
2022-08-08T09:06:34.287Z,100343.69
2022-08-08T09:10:42.280Z,100331.28
2022-08-08T09:14:55.641Z,100324.22
2022-08-08T09:19:03.494Z,100306.53
2022-08-08T09:23:10.576Z,100299.50
2022-08-08T09:27:22.832Z,100294.25
2022-08-08T09:31:55.914Z,100301.50
2022-08-08T09:36:03.544Z,100314.00
2022-08-08T09:40:10.553Z,100313.09
2022-08-08T09:44:29.757Z,100322.88
2022-08-08T09:48:42.878Z,100333.41
2022-08-08T09:52:57.680Z,100342.16
2022-08-08T09:57:06.261Z,100356.28
2022-08-08T10:02:02.230Z,100343.72
2022-08-08T10:05:47.322Z,100347.97
2022-08-08T10:10:00.434Z,100358.53
2022-08-08T10:14:07.410Z,100362.94
2022-08-08T10:18:33.542Z,100348.78
2022-08-08T10:22:54.897Z,100338.22
2022-08-08T10:27:01.609Z,100342.84
2022-08-08T10:31:47.280Z,100335.03
2022-08-08T10:36:08.923Z,100346.88
2022-08-08T10:40:20.909Z,100356.69
2022-08-08T10:44:30.775Z,100367.38
2022-08-08T10:48:55.903Z,100367.38
2022-08-08T10:53:03.397Z,100366.50
2022-08-08T10:57:10.690Z,100365.63
2022-08-08T11:01:16.802Z,100370.19
2022-08-08T11:05:23.185Z,100379.97
2022-08-08T11:09:26.688Z,100374.81
2022-08-08T11:13:52.162Z,100383.59
2022-08-08T11:18:05.793Z,100391.47
2022-08-08T11:22:14.300Z,100387.00
2022-08-08T11:26:20.919Z,100349.75
2022-08-08T11:30:34.186Z,100363.09
2022-08-08T11:35:29.560Z,100376.44
2022-08-08T11:39:15.562Z,100371.97
2022-08-08T11:43:19.556Z,100380.94
2022-08-08T11:47:25.735Z,100379.06
2022-08-08T11:51:50.318Z,100374.56
2022-08-08T11:55:55.430Z,100385.25
2022-08-08T12:00:02.541Z,100398.59
2022-08-08T12:04:19.714Z,100402.06
2022-08-08T12:08:35.174Z,100401.03
2022-08-08T12:12:45.861Z,100402.81
2022-08-08T12:16:53.274Z,100403.69
2022-08-08T12:20:59.826Z,100409.88
2022-08-08T12:25:05.172Z,100413.25
2022-08-08T12:29:25.917Z,100407.69
2022-08-08T12:34:02.115Z,100398.47
2022-08-08T12:38:09.145Z,100401.84
2022-08-08T12:42:21.546Z,100405.31
2022-08-08T12:46:26.668Z,100402.50
2022-08-08T12:50:40.273Z,100398.75
2022-08-08T12:54:49.976Z,100395.00
2022-08-08T12:58:56.426Z,100398.50
2022-08-08T13:03:01.036Z,100379.72
2022-08-08T13:07:07.482Z,100390.25
2022-08-08T13:12:18.063Z,100378.53
2022-08-08T13:16:21.437Z,100373.06
2022-08-08T13:20:27.207Z,100364.09
2022-08-08T13:24:42.508Z,100375.69
2022-08-08T13:28:48.866Z,100366.78
2022-08-08T13:32:56.541Z,100360.59
2022-08-08T13:37:01.039Z,100363.28
2022-08-08T13:41:04.528Z,100353.56
2022-08-08T13:45:10.790Z,100355.44
2022-08-08T13:50:35.129Z,100351.97
2022-08-08T13:53:59.878Z,100355.59
2022-08-08T13:58:08.796Z,100348.66
2022-08-08T14:02:22.283Z,100347.84
2022-08-08T14:06:46.464Z,100354.97
2022-08-08T14:10:50.913Z,100346.13
2022-08-08T14:14:54.211Z,100343.41
2022-08-08T14:19:00.583Z,100338.84
2022-08-08T14:23:21.243Z,100336.00
2022-08-08T14:27:37.556Z,100334.09
2022-08-08T14:32:10.067Z,100325.09
2022-08-08T14:36:13.852Z,100317.00
2022-08-08T14:40:23.879Z,100307.94
2022-08-08T14:44:35.126Z,100315.88
2022-08-08T14:48:52.607Z,100312.25
2022-08-08T14:53:04.339Z,100313.06
2022-08-08T14:57:08.767Z,100303.31
2022-08-08T15:01:23.829Z,100307.84
2022-08-08T15:05:42.653Z,100303.47
2022-08-08T15:09:56.515Z,100299.91
2022-08-08T15:14:03.168Z,100295.41
2022-08-08T15:18:06.980Z,100296.16
2022-08-08T15:22:23.314Z,100290.69
2022-08-08T15:26:28.903Z,100293.34
2022-08-08T15:30:34.076Z,100285.22
2022-08-08T15:34:37.066Z,100281.59
2022-08-08T15:38:50.259Z,100279.78
2022-08-08T15:42:53.852Z,100281.47
2022-08-08T15:46:58.318Z,100284.03
2022-08-08T15:51:06.549Z,100283.94
2022-08-08T15:55:11.232Z,100272.19
2022-08-08T15:59:15.951Z,100276.59
2022-08-08T16:03:21.102Z,100268.38
2022-08-08T16:07:51.958Z,100269.13
2022-08-08T16:13:15.208Z,100259.19
2022-08-08T16:16:17.981Z,100251.03
2022-08-08T16:20:23.288Z,100258.94
2022-08-08T16:24:27.146Z,100257.94
2022-08-08T16:28:35.665Z,100263.09
2022-08-08T16:32:40.095Z,100249.63
2022-08-08T16:36:49.471Z,100257.53
2022-08-08T16:40:53.819Z,100249.28
2022-08-08T16:44:59.507Z,100243.84
2022-08-08T16:49:02.992Z,100246.31
2022-08-08T16:55:04.483Z,100259.53
2022-08-08T16:58:15.728Z,100258.44
2022-08-08T17:01:54.176Z,100259.19
2022-08-08T17:05:58.143Z,100267.09
2022-08-08T17:10:02.903Z,100266.97
2022-08-08T17:14:18.157Z,100275.75
2022-08-08T17:18:23.093Z,100277.38
2022-08-08T17:22:39.300Z,100290.72
2022-08-08T17:26:46.842Z,100288.00
2022-08-08T17:30:52.655Z,100289.63
2022-08-08T17:35:53.340Z,100284.16
2022-08-08T17:39:45.755Z,100294.88
2022-08-08T17:44:00.455Z,100301.06
2022-08-08T17:48:10.078Z,100303.72
2022-08-08T17:52:18.112Z,100303.94
2022-08-08T17:56:21.352Z,100309.47
2022-08-08T18:00:31.786Z,100312.31
2022-08-08T18:04:37.179Z,100313.38
2022-08-08T18:08:55.411Z,100323.31
2022-08-08T18:12:59.087Z,100324.38
2022-08-08T18:17:06.632Z,100329.97
2022-08-08T18:21:34.472Z,100332.69
2022-08-08T18:25:44.580Z,100339.13
2022-08-08T18:29:48.574Z,100352.69
2022-08-08T18:34:18.824Z,100355.50
2022-08-08T18:38:19.262Z,100361.16
2022-08-08T18:42:22.514Z,100359.53
2022-08-08T18:46:55.415Z,100361.38
2022-08-08T18:50:58.322Z,100373.06
2022-08-08T18:55:10.292Z,100381.34
2022-08-08T18:59:14.826Z,100392.09
2022-08-08T19:03:18.059Z,100394.81
2022-08-08T19:07:29.777Z,100395.75
2022-08-08T19:11:36.367Z,100398.53
2022-08-08T19:15:39.458Z,100403.13
2022-08-08T19:19:44.250Z,100392.44
2022-08-08T19:24:38.955Z,100403.19
2022-08-08T19:28:32.576Z,100406.88
2022-08-08T19:32:39.751Z,100412.22
2022-08-08T19:36:45.434Z,100414.16
2022-08-08T19:40:56.075Z,100414.34
2022-08-08T19:45:07.173Z,100411.84
2022-08-08T19:49:10.824Z,100412.03
2022-08-08T19:53:50.762Z,100413.94
2022-08-08T19:57:38.435Z,100404.19
2022-08-08T20:02:01.843Z,100410.47
2022-08-08T20:06:15.823Z,100404.25
2022-08-08T20:10:20.419Z,100409.69
2022-08-08T20:14:34.177Z,100421.38
2022-08-08T20:18:53.098Z,100416.16
2022-08-08T20:22:57.756Z,100417.06
2022-08-08T20:27:01.725Z,100410.91
2022-08-08T20:31:07.096Z,100410.91
2022-08-08T20:35:14.136Z,100410.97
2022-08-08T20:39:19.669Z,100410.97
2022-08-08T20:43:42.992Z,100414.66
2022-08-08T20:47:48.638Z,100401.38
2022-08-08T20:52:01.052Z,100419.28
2022-08-08T20:56:04.362Z,100408.66
2022-08-08T21:00:09.372Z,100412.34
2022-08-08T21:04:15.459Z,100418.59
2022-08-08T21:08:36.262Z,100412.44
2022-08-08T21:12:45.997Z,100413.31
2022-08-08T21:16:49.367Z,100423.22
2022-08-08T21:20:55.318Z,100420.69
2022-08-08T21:24:58.803Z,100419.88
2022-08-08T21:29:02.704Z,100428.81
2022-08-08T21:33:08.166Z,100423.50
2022-08-08T21:37:19.078Z,100419.13
2022-08-08T21:41:38.480Z,100428.09
2022-08-08T21:48:07.862Z,100427.31
2022-08-08T21:50:10.523Z,100431.78
2022-08-08T21:54:53.282Z,100431.78
2022-08-08T21:58:40.694Z,100425.63
2022-08-08T22:02:47.816Z,100424.78
2022-08-08T22:06:51.086Z,100428.41
2022-08-08T22:10:56.508Z,100427.56
2022-08-08T22:15:00.212Z,100432.97
2022-08-08T22:19:08.948Z,100420.56
2022-08-08T22:23:19.347Z,100420.75
2022-08-08T22:27:56.002Z,100427.94
2022-08-08T22:31:58.234Z,100417.34
2022-08-08T22:36:12.310Z,100425.44
2022-08-08T22:40:16.996Z,100425.53
2022-08-08T22:44:22.039Z,100431.81
2022-08-08T22:48:27.076Z,100431.00
2022-08-08T22:52:33.412Z,100427.47
2022-08-08T22:56:38.988Z,100428.38
2022-08-08T23:00:44.315Z,100442.66
2022-08-08T23:04:58.578Z,100433.78
2022-08-08T23:09:09.611Z,100432.03
2022-08-08T23:13:13.119Z,100427.69
2022-08-08T23:17:18.021Z,100428.66
2022-08-08T23:21:21.152Z,100436.72
2022-08-08T23:25:24.607Z,100443.03
2022-08-08T23:29:29.792Z,100443.09
2022-08-08T23:34:18.750Z,100429.81
2022-08-08T23:38:03.258Z,100435.28
2022-08-08T23:42:08.806Z,100441.53
2022-08-08T23:49:04.478Z,100439.84
2022-08-08T23:50:37.073Z,100443.38
2022-08-08T23:55:00.274Z,100441.59
2022-08-08T23:59:16.937Z,100443.47
